createdAt,value
2019-05-30T00:00:38.341Z,60.31
2019-05-30T00:03:08.019Z,60.71
2019-05-30T00:05:37.795Z,60.89
2019-05-30T00:08:07.523Z,60.99
2019-05-30T00:10:37.386Z,61.13
2019-05-30T00:13:07.047Z,61.25
2019-05-30T00:15:36.642Z,61.32
2019-05-30T00:18:06.382Z,61.45
2019-05-30T00:20:36.124Z,61.70
2019-05-30T00:23:05.948Z,61.37
2019-05-30T00:25:35.617Z,61.34
2019-05-30T00:28:05.500Z,61.64
2019-05-30T00:30:35.219Z,61.60
2019-05-30T00:33:05.232Z,61.58
2019-05-30T00:35:34.964Z,61.56
2019-05-30T00:38:05.983Z,61.59
2019-05-30T00:40:35.800Z,61.79
2019-05-30T00:43:06.288Z,62.01
2019-05-30T00:45:36.258Z,61.89
2019-05-30T00:48:06.513Z,62.04
2019-05-30T00:50:36.544Z,61.96
2019-05-30T00:53:07.044Z,61.80
2019-05-30T00:55:37.115Z,62.25
2019-05-30T00:58:07.489Z,62.47
2019-05-30T01:00:43.534Z,62.72
2019-05-30T01:03:09.183Z,62.67
2019-05-30T01:05:39.181Z,62.56
2019-05-30T01:08:08.998Z,62.64
2019-05-30T01:10:38.681Z,62.74
2019-05-30T01:13:08.433Z,62.41
2019-05-30T01:15:38.115Z,62.54
2019-05-30T01:18:07.889Z,62.42
2019-05-30T01:20:37.638Z,62.33
2019-05-30T01:23:07.511Z,62.35
2019-05-30T01:25:37.324Z,62.19
2019-05-30T01:28:07.855Z,62.67
2019-05-30T01:30:37.756Z,62.64
2019-05-30T01:33:08.075Z,62.32
2019-05-30T01:35:37.890Z,62.52
2019-05-30T01:38:08.161Z,62.40
2019-05-30T01:40:37.985Z,62.42
2019-05-30T01:43:08.259Z,62.37
2019-05-30T01:45:38.156Z,62.20
2019-05-30T01:48:08.591Z,62.36
2019-05-30T01:50:38.475Z,62.48
2019-05-30T01:53:08.855Z,62.43
2019-05-30T01:55:38.677Z,62.45
2019-05-30T01:58:09.372Z,62.40
2019-05-30T02:00:41.067Z,62.53
2019-05-30T02:03:11.000Z,62.64
2019-05-30T02:05:40.925Z,62.62
2019-05-30T02:08:10.717Z,62.56
2019-05-30T02:10:40.474Z,62.67
2019-05-30T02:13:10.175Z,62.71
2019-05-30T02:15:39.837Z,62.88
2019-05-30T02:18:10.142Z,62.68
2019-05-30T02:20:40.279Z,62.57
2019-05-30T02:23:11.433Z,62.79
2019-05-30T02:25:41.414Z,63.10
2019-05-30T02:28:10.975Z,63.18
2019-05-30T02:30:40.732Z,63.19
2019-05-30T02:33:12.633Z,63.16
2019-05-30T02:35:42.543Z,63.28
2019-05-30T02:38:12.374Z,63.17
2019-05-30T02:40:41.950Z,63.13
2019-05-30T02:43:12.406Z,63.41
2019-05-30T02:45:42.204Z,63.48
2019-05-30T02:48:12.392Z,63.41
2019-05-30T02:50:43.138Z,63.51
2019-05-30T02:53:13.375Z,63.42
2019-05-30T02:55:43.758Z,63.82
2019-05-30T02:58:14.142Z,63.46
2019-05-30T03:00:44.277Z,63.60
2019-05-30T03:03:14.915Z,63.47
2019-05-30T03:05:44.882Z,63.42
2019-05-30T03:08:14.888Z,63.36
2019-05-30T03:10:44.874Z,63.41
2019-05-30T03:13:14.626Z,63.25
2019-05-30T03:15:44.449Z,63.17
2019-05-30T03:18:15.102Z,63.03
2019-05-30T03:20:45.624Z,63.00
2019-05-30T03:23:15.896Z,62.95
2019-05-30T03:25:46.105Z,62.85
2019-05-30T03:28:16.355Z,62.87
2019-05-30T03:30:47.505Z,63.10
2019-05-30T03:33:35.973Z,63.34
2019-05-30T03:35:49.947Z,63.34
2019-05-30T03:38:20.027Z,63.53
2019-05-30T03:40:50.438Z,63.36
2019-05-30T03:43:20.676Z,63.38
2019-05-30T03:45:51.455Z,63.33
2019-05-30T03:48:24.571Z,63.62
2019-05-30T03:50:56.940Z,63.72
2019-05-30T03:53:27.280Z,63.83
2019-05-30T03:56:01.878Z,63.68
2019-05-30T03:58:39.566Z,63.64
2019-05-30T04:01:14.859Z,63.81
2019-05-30T04:04:09.917Z,63.93
2019-05-30T04:06:45.675Z,64.20
2019-05-30T04:09:22.414Z,64.32
2019-05-30T04:12:07.780Z,64.34
2019-05-30T04:14:42.897Z,64.00
2019-05-30T04:17:15.240Z,63.65
2019-05-30T04:19:44.302Z,64.00
2019-05-30T04:22:15.533Z,63.88
2019-05-30T04:24:46.069Z,63.54
2019-05-30T04:27:18.074Z,63.45
2019-05-30T04:29:48.173Z,63.31
2019-05-30T04:32:18.751Z,63.03
2019-05-30T04:34:49.334Z,63.03
2019-05-30T04:37:19.690Z,63.07
2019-05-30T04:39:50.122Z,63.18
2019-05-30T04:42:20.890Z,63.16
2019-05-30T04:44:51.398Z,63.24
2019-05-30T04:47:21.666Z,63.28
2019-05-30T04:49:51.879Z,63.10
2019-05-30T04:52:24.730Z,62.81
2019-05-30T04:54:54.090Z,62.74
2019-05-30T04:57:26.848Z,62.87
2019-05-30T04:59:56.083Z,62.68
2019-05-30T05:02:26.219Z,62.51
2019-05-30T05:04:56.650Z,63.02
2019-05-30T05:07:26.841Z,63.21
2019-05-30T05:09:57.393Z,61.48
2019-05-30T05:12:27.753Z,60.09
2019-05-30T05:14:58.237Z,59.21
2019-05-30T05:17:28.595Z,58.24
2019-05-30T05:19:58.715Z,57.41
2019-05-30T05:22:28.837Z,57.11
2019-05-30T05:24:59.098Z,56.52
2019-05-30T05:27:29.493Z,56.26
2019-05-30T05:29:59.743Z,55.72
2019-05-30T05:32:29.999Z,55.33
2019-05-30T05:35:00.187Z,54.83
2019-05-30T05:37:30.714Z,54.53
2019-05-30T05:40:01.177Z,54.18
2019-05-30T05:42:31.506Z,54.09
2019-05-30T05:45:01.814Z,53.91
2019-05-30T05:47:32.018Z,53.69
2019-05-30T05:50:02.161Z,53.86
2019-05-30T05:52:32.585Z,53.79
2019-05-30T05:55:03.070Z,53.87
2019-05-30T05:57:33.529Z,53.52
2019-05-30T06:00:04.813Z,53.76
2019-05-30T06:02:35.358Z,53.58
2019-05-30T06:05:07.753Z,53.59
2019-05-30T06:07:37.903Z,53.19
2019-05-30T06:10:08.350Z,53.35
2019-05-30T06:12:38.303Z,52.41
2019-05-30T06:15:08.753Z,51.06
2019-05-30T06:17:38.874Z,51.87
2019-05-30T06:20:09.434Z,51.85
2019-05-30T06:22:39.591Z,52.14
2019-05-30T06:25:09.805Z,52.51
2019-05-30T06:27:40.097Z,51.42
2019-05-30T06:30:10.964Z,51.85
2019-05-30T06:32:41.107Z,51.86
2019-05-30T06:35:11.720Z,52.03
2019-05-30T06:37:42.162Z,52.13
2019-05-30T06:40:13.597Z,52.72
2019-05-30T06:42:43.782Z,52.98
2019-05-30T06:45:15.918Z,52.80
2019-05-30T06:47:46.338Z,52.70
2019-05-30T06:50:16.809Z,52.50
2019-05-30T06:52:47.215Z,52.72
2019-05-30T06:55:17.662Z,53.32
2019-05-30T06:57:47.799Z,53.49
2019-05-30T07:00:19.069Z,53.70
2019-05-30T07:02:49.466Z,53.57
2019-05-30T07:05:20.494Z,53.90
2019-05-30T07:07:51.071Z,54.44
2019-05-30T07:10:22.620Z,53.61
2019-05-30T07:12:53.102Z,53.90
2019-05-30T07:15:25.019Z,53.67
2019-05-30T07:17:55.693Z,53.51
2019-05-30T07:20:27.449Z,54.09
2019-05-30T07:22:58.001Z,54.54
2019-05-30T07:25:29.803Z,54.38
2019-05-30T07:28:00.279Z,54.25
2019-05-30T07:30:31.742Z,54.13
2019-05-30T07:33:02.539Z,53.82
2019-05-30T07:35:32.763Z,53.97
2019-05-30T07:38:03.236Z,53.87
2019-05-30T07:40:33.449Z,53.32
2019-05-30T07:43:03.774Z,53.30
2019-05-30T07:45:35.487Z,53.79
2019-05-30T07:48:06.007Z,54.25
2019-05-30T07:50:36.201Z,53.66
2019-05-30T07:53:06.382Z,53.31
2019-05-30T07:55:36.721Z,53.63
2019-05-30T07:58:07.057Z,53.75
2019-05-30T08:00:37.759Z,53.31
2019-05-30T08:03:08.009Z,53.63
2019-05-30T08:05:38.976Z,53.47
2019-05-30T08:08:09.346Z,54.59
2019-05-30T08:10:39.693Z,54.78
2019-05-30T08:13:10.007Z,55.01
2019-05-30T08:15:44.113Z,54.84
2019-05-30T08:18:14.310Z,54.63
2019-05-30T08:20:44.544Z,54.91
2019-05-30T08:23:14.724Z,54.81
2019-05-30T08:25:45.018Z,55.48
2019-05-30T08:28:15.066Z,55.76
2019-05-30T08:30:45.227Z,55.66
2019-05-30T08:33:15.804Z,55.53
2019-05-30T08:35:49.868Z,55.33
2019-05-30T08:38:18.957Z,56.20
2019-05-30T08:40:49.152Z,55.06
2019-05-30T08:43:19.247Z,54.86
2019-05-30T08:45:49.521Z,54.60
2019-05-30T08:48:19.674Z,55.01
2019-05-30T08:50:49.977Z,54.32
2019-05-30T08:53:20.561Z,54.21
2019-05-30T08:55:50.719Z,53.76
2019-05-30T08:58:21.091Z,53.73
2019-05-30T09:00:51.538Z,53.53
2019-05-30T09:03:21.727Z,53.92
2019-05-30T09:06:02.691Z,52.95
2019-05-30T09:08:23.721Z,54.07
2019-05-30T09:10:54.160Z,54.11
2019-05-30T09:13:24.585Z,53.63
2019-05-30T09:15:55.006Z,54.24
2019-05-30T09:18:25.355Z,53.66
2019-05-30T09:20:56.092Z,53.54
2019-05-30T09:23:26.413Z,54.24
2019-05-30T09:25:56.697Z,54.49
2019-05-30T09:28:27.444Z,55.01
2019-05-30T09:30:57.774Z,55.26
2019-05-30T09:33:28.116Z,55.34
2019-05-30T09:36:12.031Z,55.23
2019-05-30T09:38:30.395Z,54.61
2019-05-30T09:41:00.687Z,54.55
2019-05-30T09:43:31.020Z,54.87
2019-05-30T09:46:01.292Z,54.50
2019-05-30T09:48:31.996Z,53.86
2019-05-30T09:51:02.200Z,54.08
2019-05-30T09:53:32.609Z,53.17
2019-05-30T09:56:02.816Z,52.50
2019-05-30T09:58:33.165Z,51.55
2019-05-30T10:01:04.022Z,51.39
2019-05-30T10:03:34.210Z,51.91
2019-05-30T10:06:04.424Z,51.42
2019-05-30T10:08:34.961Z,51.74
2019-05-30T10:11:06.465Z,50.66
2019-05-30T10:13:36.814Z,50.35
2019-05-30T10:16:07.324Z,51.54
2019-05-30T10:18:37.471Z,50.80
2019-05-30T10:21:07.771Z,51.23
2019-05-30T10:23:37.758Z,50.85
2019-05-30T10:26:08.086Z,51.31
2019-05-30T10:28:38.335Z,51.29
2019-05-30T10:31:08.774Z,50.59
2019-05-30T10:33:39.167Z,50.75
2019-05-30T10:36:09.453Z,51.29
2019-05-30T10:38:41.066Z,50.79
2019-05-30T10:41:11.301Z,51.02
2019-05-30T10:43:41.532Z,50.82
2019-05-30T10:46:11.633Z,50.97
2019-05-30T10:48:42.004Z,50.76
2019-05-30T10:51:12.399Z,50.19
2019-05-30T10:53:42.811Z,49.93
2019-05-30T10:56:13.205Z,50.61
2019-05-30T10:58:43.472Z,49.71
2019-05-30T11:01:13.599Z,50.12
2019-05-30T11:03:43.944Z,49.22
2019-05-30T11:07:10.112Z,50.25
2019-05-30T11:09:30.167Z,49.79
2019-05-30T11:12:00.583Z,49.60
2019-05-30T11:14:30.849Z,48.96
2019-05-30T11:17:01.248Z,49.85
2019-05-30T11:19:31.661Z,50.05
2019-05-30T11:22:02.026Z,50.19
2019-05-30T11:24:32.416Z,48.59
2019-05-30T11:27:02.705Z,49.61
2019-05-30T11:29:32.822Z,48.95
2019-05-30T11:32:03.189Z,50.52
2019-05-30T11:34:33.503Z,50.26
2019-05-30T11:37:18.367Z,50.67
2019-05-30T11:39:35.869Z,52.28
2019-05-30T11:42:06.155Z,51.93
2019-05-30T11:44:36.404Z,51.51
2019-05-30T11:47:07.708Z,49.55
2019-05-30T11:49:38.066Z,49.44
2019-05-30T11:52:08.346Z,49.23
2019-05-30T11:54:38.722Z,49.39
2019-05-30T11:57:08.957Z,49.14
2019-05-30T11:59:39.462Z,48.43
2019-05-30T12:02:09.949Z,47.95
2019-05-30T12:04:41.131Z,47.24
2019-05-30T12:07:11.429Z,48.86
2019-05-30T12:09:41.820Z,48.50
2019-05-30T12:12:12.129Z,48.53
2019-05-30T12:14:42.264Z,47.97
2019-05-30T12:17:12.357Z,49.33
2019-05-30T12:19:42.369Z,50.09
2019-05-30T12:22:12.669Z,50.22
2019-05-30T12:24:43.075Z,50.68
2019-05-30T12:27:13.603Z,50.68
2019-05-30T12:29:44.066Z,50.83
2019-05-30T12:32:14.416Z,51.32
2019-05-30T12:34:44.868Z,51.50
2019-05-30T12:37:15.182Z,51.50
2019-05-30T12:39:45.527Z,50.50
2019-05-30T12:42:15.653Z,50.16
2019-05-30T12:44:45.907Z,49.70
2019-05-30T12:47:16.152Z,49.13
2019-05-30T12:49:46.382Z,47.42
2019-05-30T12:52:16.458Z,47.63
2019-05-30T12:54:46.501Z,47.37
2019-05-30T12:57:16.926Z,47.96
2019-05-30T12:59:47.145Z,48.58
2019-05-30T13:02:17.428Z,49.28
2019-05-30T13:04:47.705Z,49.27
2019-05-30T13:07:17.929Z,49.91
2019-05-30T13:09:48.233Z,51.19
2019-05-30T13:12:18.474Z,51.24
2019-05-30T13:14:48.851Z,51.11
2019-05-30T13:17:20.662Z,50.83
2019-05-30T13:19:50.901Z,51.07
2019-05-30T13:22:21.154Z,51.58
2019-05-30T13:24:51.600Z,51.86
2019-05-30T13:27:23.324Z,51.13
2019-05-30T13:29:52.711Z,51.11
2019-05-30T13:32:23.024Z,50.09
2019-05-30T13:34:53.225Z,48.02
2019-05-30T13:37:23.268Z,48.08
2019-05-30T13:39:53.330Z,47.12
2019-05-30T13:42:23.430Z,47.13
2019-05-30T13:44:53.706Z,46.32
2019-05-30T13:47:24.480Z,46.49
2019-05-30T13:49:53.768Z,46.17
2019-05-30T13:52:24.058Z,46.11
2019-05-30T13:54:54.422Z,46.34
2019-05-30T13:57:24.870Z,45.59
2019-05-30T13:59:55.239Z,45.17
2019-05-30T14:02:25.665Z,44.10
2019-05-30T14:04:55.844Z,43.55
2019-05-30T14:07:26.435Z,43.95
2019-05-30T14:09:56.816Z,45.00
2019-05-30T14:12:27.180Z,46.37
2019-05-30T14:14:57.253Z,47.16
2019-05-30T14:17:27.502Z,47.14
2019-05-30T14:19:57.921Z,47.18
2019-05-30T14:22:28.025Z,47.27
2019-05-30T14:24:58.556Z,47.89
2019-05-30T14:27:28.691Z,47.77
2019-05-30T14:29:58.742Z,48.52
2019-05-30T14:32:29.152Z,48.81
2019-05-30T14:34:59.501Z,48.49
2019-05-30T14:37:29.896Z,48.88
2019-05-30T14:40:00.152Z,47.75
2019-05-30T14:42:30.372Z,47.86
2019-05-30T14:45:00.560Z,49.21
2019-05-30T14:47:32.315Z,48.46
2019-05-30T14:50:02.819Z,48.92
2019-05-30T14:52:33.136Z,48.98
2019-05-30T14:55:03.349Z,48.66
2019-05-30T14:57:33.540Z,48.78
2019-05-30T15:00:07.480Z,48.87
2019-05-30T15:02:37.804Z,49.05
2019-05-30T15:05:09.366Z,50.18
2019-05-30T15:07:39.781Z,50.15
2019-05-30T15:10:12.761Z,50.63
2019-05-30T15:12:43.442Z,50.91
2019-05-30T15:15:16.698Z,51.74
2019-05-30T15:17:46.426Z,51.32
2019-05-30T15:20:17.804Z,51.52
2019-05-30T15:22:48.310Z,52.09
2019-05-30T15:25:18.682Z,52.41
2019-05-30T15:27:49.193Z,51.73
2019-05-30T15:30:18.915Z,51.38
2019-05-30T15:32:49.065Z,51.38
2019-05-30T15:35:19.588Z,51.62
2019-05-30T15:37:49.962Z,52.57
2019-05-30T15:40:22.025Z,51.85
2019-05-30T15:42:53.152Z,51.67
2019-05-30T15:45:23.726Z,52.23
2019-05-30T15:47:53.831Z,52.23
2019-05-30T15:50:24.222Z,52.89
2019-05-30T15:52:54.508Z,53.57
2019-05-30T15:55:24.544Z,53.35
2019-05-30T15:57:54.706Z,53.30
2019-05-30T16:00:25.265Z,53.79
2019-05-30T16:02:55.635Z,53.61
2019-05-30T16:05:25.836Z,53.33
2019-05-30T16:07:56.216Z,53.20
2019-05-30T16:10:26.619Z,53.44
2019-05-30T16:12:57.015Z,52.27
2019-05-30T16:15:27.261Z,52.67
2019-05-30T16:17:57.526Z,52.62
2019-05-30T16:20:27.916Z,53.47
2019-05-30T16:22:58.135Z,53.16
2019-05-30T16:25:28.326Z,52.47
2019-05-30T16:27:57.754Z,52.65
2019-05-30T16:30:28.140Z,52.53
2019-05-30T16:32:58.341Z,53.20
2019-05-30T16:35:28.633Z,52.38
2019-05-30T16:37:58.689Z,52.43
2019-05-30T16:40:28.925Z,52.16
2019-05-30T16:42:59.307Z,51.58
2019-05-30T16:45:29.600Z,51.93
2019-05-30T16:47:59.838Z,51.10
2019-05-30T16:50:30.143Z,51.83
2019-05-30T16:53:00.708Z,51.78
2019-05-30T16:55:31.126Z,52.69
2019-05-30T16:58:01.241Z,52.63
2019-05-30T17:00:31.398Z,52.30
2019-05-30T17:03:01.639Z,52.37
2019-05-30T17:05:32.322Z,52.49
2019-05-30T17:08:01.669Z,52.58
2019-05-30T17:10:33.306Z,52.40
2019-05-30T17:13:02.590Z,53.09
2019-05-30T17:15:32.762Z,52.78
2019-05-30T17:18:03.050Z,52.45
2019-05-30T17:20:33.209Z,50.69
2019-05-30T17:23:03.407Z,47.03
2019-05-30T17:25:33.989Z,45.50
2019-05-30T17:28:04.124Z,43.58
2019-05-30T17:30:34.498Z,43.85
2019-05-30T17:33:04.755Z,43.27
2019-05-30T17:35:35.273Z,42.82
2019-05-30T17:38:05.652Z,43.33
2019-05-30T17:40:44.733Z,43.96
2019-05-30T17:43:08.045Z,44.37
2019-05-30T17:45:38.125Z,45.01
2019-05-30T17:48:16.371Z,45.22
2019-05-30T17:50:41.471Z,46.72
2019-05-30T17:53:11.743Z,47.37
2019-05-30T17:55:42.110Z,47.73
2019-05-30T17:58:12.357Z,48.49
2019-05-30T18:00:43.152Z,49.21
2019-05-30T18:03:13.472Z,49.16
2019-05-30T18:05:43.545Z,50.33
2019-05-30T18:08:13.691Z,51.11
2019-05-30T18:10:53.271Z,50.83
2019-05-30T18:13:15.813Z,51.63
2019-05-30T18:15:46.152Z,52.72
2019-05-30T18:18:16.291Z,52.65
2019-05-30T18:20:48.757Z,53.19
2019-05-30T18:23:17.745Z,53.22
2019-05-30T18:25:47.776Z,53.50
2019-05-30T18:28:17.905Z,53.79
2019-05-30T18:30:48.302Z,54.27
2019-05-30T18:33:18.636Z,54.56
2019-05-30T18:35:49.095Z,54.82
2019-05-30T18:38:19.195Z,54.76
2019-05-30T18:40:49.558Z,54.97
2019-05-30T18:43:20.121Z,55.53
2019-05-30T18:45:50.824Z,56.26
2019-05-30T18:48:21.283Z,56.00
2019-05-30T18:50:51.680Z,56.08
2019-05-30T18:53:21.770Z,55.96
2019-05-30T18:55:51.806Z,56.44
2019-05-30T18:58:22.091Z,56.47
2019-05-30T19:00:52.292Z,56.48
2019-05-30T19:03:22.642Z,56.57
2019-05-30T19:05:53.180Z,56.17
2019-05-30T19:08:23.322Z,56.21
2019-05-30T19:10:53.706Z,56.26
2019-05-30T19:13:24.839Z,56.89
2019-05-30T19:15:55.432Z,57.10
2019-05-30T19:18:25.782Z,57.04
2019-05-30T19:20:55.871Z,57.46
2019-05-30T19:23:26.198Z,57.59
2019-05-30T19:25:56.393Z,57.85
2019-05-30T19:28:26.746Z,58.64
2019-05-30T19:30:57.165Z,58.96
2019-05-30T19:33:28.754Z,59.51
2019-05-30T19:35:59.288Z,59.42
2019-05-30T19:38:29.509Z,59.73
2019-05-30T19:40:59.976Z,59.84
2019-05-30T19:43:30.033Z,60.12
2019-05-30T19:46:00.392Z,60.74
2019-05-30T19:48:30.593Z,60.92
2019-05-30T19:51:00.497Z,60.90
2019-05-30T19:53:31.169Z,60.88
2019-05-30T19:56:00.989Z,61.08
2019-05-30T19:58:31.553Z,61.23
2019-05-30T20:01:01.599Z,61.36
2019-05-30T20:03:38.350Z,61.52
2019-05-30T20:06:02.634Z,61.23
2019-05-30T20:08:48.201Z,61.49
2019-05-30T20:11:03.744Z,61.72
2019-05-30T20:13:34.939Z,61.65
2019-05-30T20:16:05.154Z,61.81
2019-05-30T20:18:35.527Z,61.74
2019-05-30T20:21:05.390Z,61.66
2019-05-30T20:23:48.422Z,62.44
2019-05-30T20:26:06.329Z,62.25
2019-05-30T20:28:36.785Z,62.30
2019-05-30T20:31:06.343Z,62.28
2019-05-30T20:33:36.503Z,62.34
2019-05-30T20:36:06.633Z,62.24
2019-05-30T20:38:36.522Z,62.26
2019-05-30T20:41:06.387Z,62.56
2019-05-30T20:43:36.956Z,62.80
2019-05-30T20:46:20.321Z,63.01
2019-05-30T20:48:40.761Z,63.23
2019-05-30T20:51:20.793Z,62.78
2019-05-30T20:53:41.300Z,62.66
2019-05-30T20:56:11.053Z,62.39
2019-05-30T20:58:41.817Z,62.23
2019-05-30T21:01:11.602Z,62.38
2019-05-30T21:03:41.787Z,62.04
2019-05-30T21:06:11.962Z,62.38
2019-05-30T21:08:43.202Z,62.67
2019-05-30T21:11:13.930Z,63.02
2019-05-30T21:13:44.291Z,63.67
2019-05-30T21:16:16.024Z,63.61
2019-05-30T21:18:47.373Z,63.94
2019-05-30T21:21:17.098Z,63.88
2019-05-30T21:23:46.703Z,64.25
2019-05-30T21:26:16.496Z,64.62
2019-05-30T21:28:47.304Z,64.73
2019-05-30T21:31:17.076Z,64.68
2019-05-30T21:33:47.916Z,65.36
2019-05-30T21:36:18.330Z,65.21
2019-05-30T21:38:48.193Z,65.60
2019-05-30T21:41:17.965Z,65.85
2019-05-30T21:43:48.933Z,65.85
2019-05-30T21:46:18.711Z,65.71
2019-05-30T21:48:49.035Z,65.79
2019-05-30T21:51:18.902Z,66.00
2019-05-30T21:53:49.647Z,66.08
2019-05-30T21:56:19.615Z,66.15
2019-05-30T21:58:50.383Z,65.75
2019-05-30T22:01:25.117Z,65.33
2019-05-30T22:03:53.985Z,64.82
2019-05-30T22:06:23.743Z,64.44
2019-05-30T22:08:53.570Z,64.19
2019-05-30T22:11:23.293Z,64.18
2019-05-30T22:13:53.079Z,63.63
2019-05-30T22:16:22.965Z,63.98
2019-05-30T22:18:52.728Z,64.05
2019-05-30T22:21:22.499Z,63.98
2019-05-30T22:23:52.599Z,64.10
2019-05-30T22:26:22.491Z,63.93
2019-05-30T22:28:52.672Z,64.11
2019-05-30T22:31:23.520Z,64.50
2019-05-30T22:33:53.369Z,64.44
2019-05-30T22:36:23.071Z,64.51
2019-05-30T22:38:53.278Z,64.58
2019-05-30T22:41:23.213Z,64.84
2019-05-30T22:43:53.019Z,65.03
2019-05-30T22:46:22.844Z,64.76
2019-05-30T22:48:53.028Z,64.67
2019-05-30T22:51:22.808Z,64.75
2019-05-30T22:53:53.228Z,64.63
2019-05-30T22:56:23.224Z,64.41
2019-05-30T22:58:53.846Z,64.42
2019-05-30T23:01:23.656Z,64.49
2019-05-30T23:03:54.010Z,64.56
2019-05-30T23:06:24.008Z,64.58
2019-05-30T23:08:54.851Z,64.36
2019-05-30T23:11:24.717Z,64.11
2019-05-30T23:13:54.459Z,63.99
2019-05-30T23:16:24.131Z,63.95
2019-05-30T23:18:54.745Z,63.89
2019-05-30T23:21:24.734Z,64.40
2019-05-30T23:23:55.268Z,64.34
2019-05-30T23:26:25.261Z,64.90
2019-05-30T23:28:55.838Z,65.24
2019-05-30T23:31:25.629Z,65.17
2019-05-30T23:33:56.450Z,65.40
2019-05-30T23:36:26.180Z,65.61
2019-05-30T23:38:56.915Z,65.51
2019-05-30T23:41:26.572Z,65.58
2019-05-30T23:44:08.861Z,65.67
2019-05-30T23:46:27.663Z,65.73
2019-05-30T23:48:57.747Z,65.75
2019-05-30T23:51:27.578Z,66.07
2019-05-30T23:53:58.378Z,65.67
2019-05-30T23:56:28.298Z,65.36
2019-05-30T23:58:58.884Z,65.45
